sensor_id;sensor_type;location;lat;lon;timestamp;pressure;altitude;pressure_sealevel;temperature;humidity
66560;BME280;53413;49.878;8.142;2023-01-29T00:01:05;101284.16;;;0.57;100.00
66560;BME280;53413;49.878;8.142;2023-01-29T00:03:31;101284.09;;;0.55;100.00
66560;BME280;53413;49.878;8.142;2023-01-29T00:05:57;101284.94;;;0.54;100.00
66560;BME280;53413;49.878;8.142;2023-01-29T00:08:22;101289.25;;;0.55;100.00
66560;BME280;53413;49.878;8.142;2023-01-29T00:10:47;101285.84;;;0.56;100.00
66560;BME280;53413;49.878;8.142;2023-01-29T00:13:13;101277.19;;;0.54;100.00
66560;BME280;53413;49.878;8.142;2023-01-29T00:15:38;101289.22;;;0.52;100.00
66560;BME280;53413;49.878;8.142;2023-01-29T00:18:04;101293.66;;;0.58;100.00
66560;BME280;53413;49.878;8.142;2023-01-29T00:20:30;101287.69;;;0.60;100.00
66560;BME280;53413;49.878;8.142;2023-01-29T00:22:55;101291.00;;;0.56;100.00
66560;BME280;53413;49.878;8.142;2023-01-29T00:25:20;101291.00;;;0.56;100.00
66560;BME280;53413;49.878;8.142;2023-01-29T00:27:46;101296.25;;;0.59;100.00
66560;BME280;53413;49.878;8.142;2023-01-29T00:30:11;101299.63;;;0.57;100.00
66560;BME280;53413;49.878;8.142;2023-01-29T00:32:38;101299.66;;;0.58;100.00
66560;BME280;53413;49.878;8.142;2023-01-29T00:35:04;101292.84;;;0.60;100.00
66560;BME280;53413;49.878;8.142;2023-01-29T00:37:30;101312.63;;;0.60;100.00
66560;BME280;53413;49.878;8.142;2023-01-29T00:39:56;101312.63;;;0.61;100.00
66560;BME280;53413;49.878;8.142;2023-01-29T00:42:21;101319.53;;;0.63;100.00
66560;BME280;53413;49.878;8.142;2023-01-29T00:45:06;101312.63;;;0.60;100.00
66560;BME280;53413;49.878;8.142;2023-01-29T00:47:31;101312.66;;;0.63;100.00
66560;BME280;53413;49.878;8.142;2023-01-29T00:50:01;101305.84;;;0.67;100.00
66560;BME280;53413;49.878;8.142;2023-01-29T00:52:27;101303.28;;;0.67;100.00
66560;BME280;53413;49.878;8.142;2023-01-29T00:54:54;101305.03;;;0.68;100.00
66560;BME280;53413;49.878;8.142;2023-01-29T00:57:21;101299.00;;;0.66;100.00
66560;BME280;53413;49.878;8.142;2023-01-29T00:59:46;101306.75;;;0.67;100.00
66560;BME280;53413;49.878;8.142;2023-01-29T01:02:12;101300.78;;;0.70;100.00
66560;BME280;53413;49.878;8.142;2023-01-29T01:04:55;101289.63;;;0.71;100.00
66560;BME280;53413;49.878;8.142;2023-01-29T01:07:21;101296.50;;;0.70;100.00
66560;BME280;53413;49.878;8.142;2023-01-29T01:09:46;101294.69;;;0.66;100.00
66560;BME280;53413;49.878;8.142;2023-01-29T01:12:30;101303.16;;;0.60;100.00
66560;BME280;53413;49.878;8.142;2023-01-29T01:14:56;101297.00;;;0.55;100.00
66560;BME280;53413;49.878;8.142;2023-01-29T01:17:22;101299.56;;;0.54;100.00
66560;BME280;53413;49.878;8.142;2023-01-29T01:19:47;101296.25;;;0.59;100.00
66560;BME280;53413;49.878;8.142;2023-01-29T01:22:12;101286.00;;;0.63;100.00
66560;BME280;53413;49.878;8.142;2023-01-29T01:24:38;101281.69;;;0.61;100.00
66560;BME280;53413;49.878;8.142;2023-01-29T01:27:04;101284.25;;;0.60;100.00
66560;BME280;53413;49.878;8.142;2023-01-29T01:29:29;101275.59;;;0.58;100.00
66560;BME280;53413;49.878;8.142;2023-01-29T01:31:55;101271.19;;;0.54;100.00
66560;BME280;53413;49.878;8.142;2023-01-29T01:34:20;101272.94;;;0.55;100.00
66560;BME280;53413;49.878;8.142;2023-01-29T01:36:46;101271.06;;;0.48;100.00
66560;BME280;53413;49.878;8.142;2023-01-29T01:39:12;101267.50;;;0.44;100.00
66560;BME280;53413;49.878;8.142;2023-01-29T01:41:37;101265.75;;;0.43;100.00
66560;BME280;53413;49.878;8.142;2023-01-29T01:44:03;101268.22;;;0.37;100.00
66560;BME280;53413;49.878;8.142;2023-01-29T01:46:31;101266.47;;;0.36;100.00
66560;BME280;53413;49.878;8.142;2023-01-29T01:49:08;101266.53;;;0.39;100.00
66560;BME280;53413;49.878;8.142;2023-01-29T01:51:39;101252.84;;;0.41;100.00
66560;BME280;53413;49.878;8.142;2023-01-29T01:54:07;101256.22;;;0.39;99.65
66560;BME280;53413;49.878;8.142;2023-01-29T01:56:37;101248.50;;;0.39;99.77
66560;BME280;53413;49.878;8.142;2023-01-29T01:59:12;101240.69;;;0.37;98.27
66560;BME280;53413;49.878;8.142;2023-01-29T02:01:41;101234.53;;;0.30;99.57
66560;BME280;53413;49.878;8.142;2023-01-29T02:04:17;101237.91;;;0.28;100.00
66560;BME280;53413;49.878;8.142;2023-01-29T02:07:06;101244.69;;;0.23;99.42
66560;BME280;53413;49.878;8.142;2023-01-29T02:09:55;101239.28;;;0.13;99.81
66560;BME280;53413;49.878;8.142;2023-01-29T02:12:24;101229.56;;;0.02;99.43
66560;BME280;53413;49.878;8.142;2023-01-29T02:14:50;101234.50;;;-0.08;99.56
66560;BME280;53413;49.878;8.142;2023-01-29T02:17:18;101233.41;;;-0.16;100.00
66560;BME280;53413;49.878;8.142;2023-01-29T02:23:00;101231.94;;;-0.40;100.00
66560;BME280;53413;49.878;8.142;2023-01-29T02:25:37;101230.78;;;-0.51;100.00
66560;BME280;53413;49.878;8.142;2023-01-29T02:33:51;101231.84;;;-0.75;100.00
66560;BME280;53413;49.878;8.142;2023-01-29T02:41:43;101245.97;;;-0.93;100.00
66560;BME280;53413;49.878;8.142;2023-01-29T02:44:22;101246.94;;;-0.87;100.00
66560;BME280;53413;49.878;8.142;2023-01-29T02:49:37;101255.94;;;-0.73;100.00
66560;BME280;53413;49.878;8.142;2023-01-29T02:52:18;101258.75;;;-0.64;100.00
66560;BME280;53413;49.878;8.142;2023-01-29T02:54:58;101268.44;;;-0.55;100.00
66560;BME280;53413;49.878;8.142;2023-01-29T02:57:30;101279.81;;;-0.47;100.00
66560;BME280;53413;49.878;8.142;2023-01-29T03:00:02;101287.72;;;-0.40;100.00
66560;BME280;53413;49.878;8.142;2023-01-29T03:03:37;101281.88;;;-0.35;100.00
66560;BME280;53413;49.878;8.142;2023-01-29T03:05:42;101276.09;;;-0.26;100.00
66560;BME280;53413;49.878;8.142;2023-01-29T03:08:13;101280.53;;;-0.20;100.00
66560;BME280;53413;49.878;8.142;2023-01-29T03:10:47;101275.50;;;-0.16;100.00
66560;BME280;53413;49.878;8.142;2023-01-29T03:13:23;101264.53;;;-0.08;100.00
66560;BME280;53413;49.878;8.142;2023-01-29T03:15:55;101250.00;;;-0.05;100.00
66560;BME280;53413;49.878;8.142;2023-01-29T03:18:30;101256.91;;;-0.04;100.00
66560;BME280;53413;49.878;8.142;2023-01-29T03:21:02;101254.38;;;-0.02;100.00
66560;BME280;53413;49.878;8.142;2023-01-29T03:23:49;101253.59;;;0.01;100.00
66560;BME280;53413;49.878;8.142;2023-01-29T03:26:34;101250.19;;;0.02;100.00
66560;BME280;53413;49.878;8.142;2023-01-29T03:29:18;101259.53;;;-0.02;100.00
66560;BME280;53413;49.878;8.142;2023-01-29T03:32:03;101274.19;;;0.01;100.00
66560;BME280;53413;49.878;8.142;2023-01-29T03:34:35;101278.59;;;0.05;100.00
66560;BME280;53413;49.878;8.142;2023-01-29T03:37:14;101273.47;;;0.06;100.00
66560;BME280;53413;49.878;8.142;2023-01-29T03:39:43;101274.28;;;0.04;100.00
66560;BME280;53413;49.878;8.142;2023-01-29T03:42:25;101275.94;;;0.02;100.00
66560;BME280;53413;49.878;8.142;2023-01-29T03:45:17;101277.59;;;-0.01;100.00
66560;BME280;53413;49.878;8.142;2023-01-29T03:50:40;101275.84;;;-0.02;100.00
66560;BME280;53413;49.878;8.142;2023-01-29T03:53:15;101263.66;;;-0.09;100.00
66560;BME280;53413;49.878;8.142;2023-01-29T03:56:11;101259.13;;;-0.18;100.00
66560;BME280;53413;49.878;8.142;2023-01-29T03:58:47;101258.19;;;-0.21;100.00
66560;BME280;53413;49.878;8.142;2023-01-29T04:01:24;101258.09;;;-0.24;100.00
66560;BME280;53413;49.878;8.142;2023-01-29T04:03:54;101262.34;;;-0.26;100.00
66560;BME280;53413;49.878;8.142;2023-01-29T04:06:23;101271.81;;;-0.25;100.00
66560;BME280;53413;49.878;8.142;2023-01-29T04:09:04;101280.47;;;-0.23;100.00
66560;BME280;53413;49.878;8.142;2023-01-29T04:11:34;101273.59;;;-0.23;100.00
66560;BME280;53413;49.878;8.142;2023-01-29T04:14:01;101270.16;;;-0.23;100.00
66560;BME280;53413;49.878;8.142;2023-01-29T04:16:39;101270.06;;;-0.26;100.00
66560;BME280;53413;49.878;8.142;2023-01-29T04:19:07;101265.75;;;-0.27;100.00
66560;BME280;53413;49.878;8.142;2023-01-29T04:21:33;101254.59;;;-0.26;100.00
66560;BME280;53413;49.878;8.142;2023-01-29T04:23:58;101251.13;;;-0.28;100.00
66560;BME280;53413;49.878;8.142;2023-01-29T04:31:41;101238.69;;;-0.45;100.00
66560;BME280;53413;49.878;8.142;2023-01-29T04:37:15;101229.94;;;-0.50;100.00
66560;BME280;53413;49.878;8.142;2023-01-29T04:42:28;101241.84;;;-0.55;100.00
66560;BME280;53413;49.878;8.142;2023-01-29T04:45:04;101240.13;;;-0.55;100.00
66560;BME280;53413;49.878;8.142;2023-01-29T04:47:46;101238.44;;;-0.54;100.00
66560;BME280;53413;49.878;8.142;2023-01-29T04:50:19;101247.97;;;-0.50;100.00
66560;BME280;53413;49.878;8.142;2023-01-29T04:55:27;101248.88;;;-0.48;100.00
66560;BME280;53413;49.878;8.142;2023-01-29T05:00:47;101254.13;;;-0.45;100.00
66560;BME280;53413;49.878;8.142;2023-01-29T05:03:15;101248.97;;;-0.45;100.00
66560;BME280;53413;49.878;8.142;2023-01-29T05:05:43;101250.72;;;-0.44;100.00
66560;BME280;53413;49.878;8.142;2023-01-29T05:08:11;101252.31;;;-0.48;100.00
66560;BME280;53413;49.878;8.142;2023-01-29T05:10:38;101242.78;;;-0.52;100.00
66560;BME280;53413;49.878;8.142;2023-01-29T05:13:06;101248.75;;;-0.54;100.00
66560;BME280;53413;49.878;8.142;2023-01-29T05:15:37;101250.44;;;-0.53;100.00
66560;BME280;53413;49.878;8.142;2023-01-29T05:18:04;101257.41;;;-0.51;100.00
66560;BME280;53413;49.878;8.142;2023-01-29T05:20:35;101255.59;;;-0.53;100.00
66560;BME280;53413;49.878;8.142;2023-01-29T05:23:02;101258.19;;;-0.53;100.00
66560;BME280;53413;49.878;8.142;2023-01-29T05:25:30;101248.81;;;-0.51;100.00
66560;BME280;53413;49.878;8.142;2023-01-29T05:27:55;101247.97;;;-0.50;100.00
66560;BME280;53413;49.878;8.142;2023-01-29T05:30:41;101248.03;;;-0.49;100.00
66560;BME280;53413;49.878;8.142;2023-01-29T05:33:24;101250.59;;;-0.49;100.00
66560;BME280;53413;49.878;8.142;2023-01-29T05:35:50;101242.88;;;-0.49;100.00
66560;BME280;53413;49.878;8.142;2023-01-29T05:38:16;101237.84;;;-0.44;100.00
66560;BME280;53413;49.878;8.142;2023-01-29T05:40:42;101232.69;;;-0.44;100.00
66560;BME280;53413;49.878;8.142;2023-01-29T05:43:23;101228.97;;;-0.55;100.00
66560;BME280;53413;49.878;8.142;2023-01-29T05:48:17;101240.72;;;-0.65;100.00
66560;BME280;53413;49.878;8.142;2023-01-29T05:50:42;101243.94;;;-0.72;100.00
66560;BME280;53413;49.878;8.142;2023-01-29T05:53:07;101244.72;;;-0.75;100.00
66560;BME280;53413;49.878;8.142;2023-01-29T05:55:33;101244.63;;;-0.78;100.00
66560;BME280;53413;49.878;8.142;2023-01-29T05:57:58;101244.63;;;-0.78;100.00
66560;BME280;53413;49.878;8.142;2023-01-29T06:00:24;101240.25;;;-0.82;100.00
66560;BME280;53413;49.878;8.142;2023-01-29T06:02:49;101253.81;;;-0.88;100.00
66560;BME280;53413;49.878;8.142;2023-01-29T06:05:15;101256.31;;;-0.89;100.00
66560;BME280;53413;49.878;8.142;2023-01-29T06:07:40;101261.47;;;-0.89;100.00
66560;BME280;53413;49.878;8.142;2023-01-29T06:10:11;101249.44;;;-0.90;100.00
66560;BME280;53413;49.878;8.142;2023-01-29T06:12:36;101234.53;;;-1.01;100.00
66560;BME280;53413;49.878;8.142;2023-01-29T06:15:02;101242.78;;;-1.13;100.00
66560;BME280;53413;49.878;8.142;2023-01-29T06:17:27;101245.22;;;-1.17;100.00
66560;BME280;53413;49.878;8.142;2023-01-29T06:19:52;101247.06;;;-1.13;100.00
66560;BME280;53413;49.878;8.142;2023-01-29T06:22:18;101254.03;;;-1.09;100.00
66560;BME280;53413;49.878;8.142;2023-01-29T06:24:43;101255.97;;;-1.02;100.00
66560;BME280;53413;49.878;8.142;2023-01-29T06:27:09;101253.59;;;-0.96;100.00
66560;BME280;53413;49.878;8.142;2023-01-29T06:29:35;101256.31;;;-0.89;100.00
66560;BME280;53413;49.878;8.142;2023-01-29T06:32:00;101246.94;;;-0.87;100.00
66560;BME280;53413;49.878;8.142;2023-01-29T06:34:26;101240.03;;;-0.88;100.00
66560;BME280;53413;49.878;8.142;2023-01-29T06:36:51;101237.34;;;-0.93;100.00
66560;BME280;53413;49.878;8.142;2023-01-29T06:39:16;101233.00;;;-0.96;100.00
66560;BME280;53413;49.878;8.142;2023-01-29T06:41:41;101229.34;;;-1.04;100.00
66560;BME280;53413;49.878;8.142;2023-01-29T06:44:07;101224.81;;;-1.11;100.00
66560;BME280;53413;49.878;8.142;2023-01-29T06:46:32;101240.09;;;-1.17;100.00
66560;BME280;53413;49.878;8.142;2023-01-29T06:48:58;101234.94;;;-1.17;100.00
66560;BME280;53413;49.878;8.142;2023-01-29T06:51:25;101237.56;;;-1.16;100.00
66560;BME280;53413;49.878;8.142;2023-01-29T06:53:50;101232.44;;;-1.14;100.00
66560;BME280;53413;49.878;8.142;2023-01-29T06:56:15;101239.50;;;-1.09;100.00
66560;BME280;53413;49.878;8.142;2023-01-29T06:58:41;101240.53;;;-1.02;100.00
66560;BME280;53413;49.878;8.142;2023-01-29T07:01:09;101236.38;;;-0.98;100.00
66560;BME280;53413;49.878;8.142;2023-01-29T07:03:34;101240.72;;;-0.96;100.00
66560;BME280;53413;49.878;8.142;2023-01-29T07:06:00;101238.97;;;-0.97;100.00
66560;BME280;53413;49.878;8.142;2023-01-29T07:08:26;101238.09;;;-0.97;100.00
66560;BME280;53413;49.878;8.142;2023-01-29T07:10:52;101236.41;;;-0.97;100.00
66560;BME280;53413;49.878;8.142;2023-01-29T07:13:22;101244.97;;;-0.96;100.00
66560;BME280;53413;49.878;8.142;2023-01-29T07:15:47;101245.84;;;-0.96;100.00
66560;BME280;53413;49.878;8.142;2023-01-29T07:18:12;101253.44;;;-1.00;100.00
66560;BME280;53413;49.878;8.142;2023-01-29T07:20:39;101262.00;;;-1.01;100.00
66560;BME280;53413;49.878;8.142;2023-01-29T07:23:05;101260.41;;;-0.96;100.00
66560;BME280;53413;49.878;8.142;2023-01-29T07:25:32;101271.69;;;-0.93;100.00
66560;BME280;53413;49.878;8.142;2023-01-29T07:28:00;101268.41;;;-0.87;100.00
66560;BME280;53413;49.878;8.142;2023-01-29T07:30:26;101267.63;;;-0.84;100.00
66560;BME280;53413;49.878;8.142;2023-01-29T07:32:52;101272.78;;;-0.84;100.00
66560;BME280;53413;49.878;8.142;2023-01-29T07:35:17;101279.63;;;-0.85;100.00
66560;BME280;53413;49.878;8.142;2023-01-29T07:37:42;101279.56;;;-0.86;100.00
66560;BME280;53413;49.878;8.142;2023-01-29T07:40:08;101276.22;;;-0.84;100.00
66560;BME280;53413;49.878;8.142;2023-01-29T07:42:38;101285.06;;;-0.74;100.00
66560;BME280;53413;49.878;8.142;2023-01-29T07:45:06;101284.44;;;-0.67;100.00
66560;BME280;53413;49.878;8.142;2023-01-29T07:47:32;101283.81;;;-0.58;100.00
66560;BME280;53413;49.878;8.142;2023-01-29T07:49:57;101287.47;;;-0.50;100.00
66560;BME280;53413;49.878;8.142;2023-01-29T07:52:23;101285.94;;;-0.43;100.00
66560;BME280;53413;49.878;8.142;2023-01-29T07:54:48;101280.94;;;-0.37;100.00
66560;BME280;53413;49.878;8.142;2023-01-29T07:57:13;101269.22;;;-0.25;100.00
66560;BME280;53413;49.878;8.142;2023-01-29T07:59:39;101267.88;;;-0.12;100.00
66560;BME280;53413;49.878;8.142;2023-01-29T08:02:04;101273.13;;;-0.08;100.00
66560;BME280;53413;49.878;8.142;2023-01-29T08:04:29;101267.38;;;0.03;100.00
66560;BME280;53413;49.878;8.142;2023-01-29T08:06:54;101258.88;;;0.07;100.00
66560;BME280;53413;49.878;8.142;2023-01-29T08:09:20;101248.66;;;0.10;100.00
66560;BME280;53413;49.878;8.142;2023-01-29T08:11:45;101242.84;;;0.19;100.00
66560;BME280;53413;49.878;8.142;2023-01-29T08:14:10;101257.91;;;0.37;100.00
66560;BME280;53413;49.878;8.142;2023-01-29T08:16:36;101255.19;;;0.69;100.00
66560;BME280;53413;49.878;8.142;2023-01-29T08:19:01;101256.50;;;0.89;100.00
66560;BME280;53413;49.878;8.142;2023-01-29T08:21:26;101251.47;;;0.97;100.00
66560;BME280;53413;49.878;8.142;2023-01-29T08:23:52;101257.81;;;1.12;100.00
66560;BME280;53413;49.878;8.142;2023-01-29T08:26:17;101252.22;;;1.33;100.00
66560;BME280;53413;49.878;8.142;2023-01-29T08:28:43;101267.47;;;1.20;100.00
66560;BME280;53413;49.878;8.142;2023-01-29T08:31:15;101276.81;;;1.15;100.00
66560;BME280;53413;49.878;8.142;2023-01-29T08:33:41;101269.22;;;1.23;100.00
66560;BME280;53413;49.878;8.142;2023-01-29T08:36:07;101262.06;;;1.10;100.00
66560;BME280;53413;49.878;8.142;2023-01-29T08:38:33;101254.97;;;0.99;100.00
66560;BME280;53413;49.878;8.142;2023-01-29T08:40:58;101245.72;;;1.09;100.00
66560;BME280;53413;49.878;8.142;2023-01-29T08:43:23;101249.94;;;1.48;100.00
66560;BME280;53413;49.878;8.142;2023-01-29T08:45:49;101245.56;;;1.92;100.00
66560;BME280;53413;49.878;8.142;2023-01-29T08:48:14;101239.38;;;2.37;98.34
66560;BME280;53413;49.878;8.142;2023-01-29T08:50:39;101239.88;;;2.71;96.67
66560;BME280;53413;49.878;8.142;2023-01-29T08:53:07;101240.16;;;2.91;93.75
66560;BME280;53413;49.878;8.142;2023-01-29T08:55:38;101240.41;;;3.12;93.42
66560;BME280;53413;49.878;8.142;2023-01-29T08:58:05;101251.91;;;3.34;91.92
66560;BME280;53413;49.878;8.142;2023-01-29T09:00:32;101265.91;;;3.50;90.56
66560;BME280;53413;49.878;8.142;2023-01-29T09:02:57;101267.59;;;3.46;88.76
66560;BME280;53413;49.878;8.142;2023-01-29T09:05:24;101271.75;;;3.33;89.37
66560;BME280;53413;49.878;8.142;2023-01-29T09:07:49;101279.41;;;3.24;88.97
66560;BME280;53413;49.878;8.142;2023-01-29T09:10:15;101282.63;;;3.06;89.09
66560;BME280;53413;49.878;8.142;2023-01-29T09:12:41;101275.59;;;2.96;89.46
66560;BME280;53413;49.878;8.142;2023-01-29T09:15:06;101281.47;;;2.84;88.87
66560;BME280;53413;49.878;8.142;2023-01-29T09:17:32;101292.53;;;2.73;88.54
66560;BME280;53413;49.878;8.142;2023-01-29T09:19:57;101288.84;;;2.59;87.62
66560;BME280;53413;49.878;8.142;2023-01-29T09:22:23;101287.28;;;2.13;88.17
66560;BME280;53413;49.878;8.142;2023-01-29T09:24:48;101289.03;;;2.14;88.51
66560;BME280;53413;49.878;8.142;2023-01-29T09:27:13;101290.75;;;2.14;88.53
66560;BME280;53413;49.878;8.142;2023-01-29T09:29:39;101290.63;;;2.06;87.50
66560;BME280;53413;49.878;8.142;2023-01-29T09:32:04;101303.31;;;1.94;88.24
66560;BME280;53413;49.878;8.142;2023-01-29T09:34:30;101306.00;;;2.00;89.83
66560;BME280;53413;49.878;8.142;2023-01-29T09:36:55;101299.91;;;1.96;89.99
66560;BME280;53413;49.878;8.142;2023-01-29T09:39:21;101294.97;;;2.09;89.44
66560;BME280;53413;49.878;8.142;2023-01-29T09:45:19;101296.06;;;2.22;88.97
66560;BME280;53413;49.878;8.142;2023-01-29T09:47:45;101299.38;;;2.14;88.76
66560;BME280;53413;49.878;8.142;2023-01-29T09:50:20;101296.63;;;2.07;89.55
66560;BME280;53413;49.878;8.142;2023-01-29T09:53:04;101297.38;;;1.98;88.56
66560;BME280;53413;49.878;8.142;2023-01-29T09:55:57;101304.19;;;1.94;88.96
66560;BME280;53413;49.878;8.142;2023-01-29T10:03:43;101307.56;;;1.90;89.21
66560;BME280;53413;49.878;8.142;2023-01-29T10:09:31;101306.28;;;2.14;90.48
66560;BME280;53413;49.878;8.142;2023-01-29T10:15:02;101295.19;;;2.23;91.76
66560;BME280;53413;49.878;8.142;2023-01-29T10:21:17;101288.38;;;2.26;91.51
66560;BME280;53413;49.878;8.142;2023-01-29T10:23:46;101291.03;;;2.33;91.02
66560;BME280;53413;49.878;8.142;2023-01-29T10:26:14;101295.59;;;2.47;90.91
66560;BME280;53413;49.878;8.142;2023-01-29T10:28:44;101303.47;;;2.54;90.30
66560;BME280;53413;49.878;8.142;2023-01-29T10:31:18;101298.38;;;2.60;89.50
66560;BME280;53413;49.878;8.142;2023-01-29T10:33:49;101276.94;;;2.69;89.55
66560;BME280;53413;49.878;8.142;2023-01-29T10:36:45;101262.50;;;2.85;89.06
66560;BME280;53413;49.878;8.142;2023-01-29T10:39:19;101256.72;;;3.04;88.29
66560;BME280;53413;49.878;8.142;2023-01-29T10:53:06;101222.66;;;3.44;83.46
66560;BME280;53413;49.878;8.142;2023-01-29T11:00:59;101209.06;;;3.68;82.15
66560;BME280;53413;49.878;8.142;2023-01-29T11:03:26;101200.34;;;3.62;83.06
66560;BME280;53413;49.878;8.142;2023-01-29T11:06:20;101196.34;;;3.96;81.53
66560;BME280;53413;49.878;8.142;2023-01-29T11:09:25;101186.97;;;4.15;80.31
66560;BME280;53413;49.878;8.142;2023-01-29T11:12:04;101178.31;;;4.15;80.06
66560;BME280;53413;49.878;8.142;2023-01-29T11:14:45;101179.19;;;4.15;79.31
66560;BME280;53413;49.878;8.142;2023-01-29T11:17:21;101174.94;;;4.25;78.49
66560;BME280;53413;49.878;8.142;2023-01-29T11:19:48;101165.56;;;4.51;77.06
66560;BME280;53413;49.878;8.142;2023-01-29T11:24:44;101171.84;;;4.93;76.81
66560;BME280;53413;49.878;8.142;2023-01-29T11:27:22;101164.00;;;4.82;75.72
66560;BME280;53413;49.878;8.142;2023-01-29T11:29:51;101166.53;;;4.71;75.82
66560;BME280;53413;49.878;8.142;2023-01-29T11:32:23;101169.03;;;4.54;75.40
66560;BME280;53413;49.878;8.142;2023-01-29T11:37:40;101155.00;;;4.18;77.56
66560;BME280;53413;49.878;8.142;2023-01-29T11:42:43;101148.88;;;4.07;78.05
66560;BME280;53413;49.878;8.142;2023-01-29T11:45:25;101145.47;;;4.14;77.89
66560;BME280;53413;49.878;8.142;2023-01-29T11:48:00;101150.78;;;4.36;77.39
66560;BME280;53413;49.878;8.142;2023-01-29T11:50:31;101157.06;;;4.87;77.51
66560;BME280;53413;49.878;8.142;2023-01-29T11:52:58;101154.53;;;4.92;77.15
66560;BME280;53413;49.878;8.142;2023-01-29T11:55:31;101158.84;;;4.99;77.06
66560;BME280;53413;49.878;8.142;2023-01-29T11:58:12;101151.03;;;4.85;74.88
66560;BME280;53413;49.878;8.142;2023-01-29T12:00:41;101151.00;;;4.79;75.64
66560;BME280;53413;49.878;8.142;2023-01-29T12:06:13;101138.69;;;4.41;75.89
66560;BME280;53413;49.878;8.142;2023-01-29T12:08:43;101136.91;;;4.30;75.61
66560;BME280;53413;49.878;8.142;2023-01-29T12:11:12;101123.84;;;4.12;77.47
66560;BME280;53413;49.878;8.142;2023-01-29T12:13:40;101120.38;;;4.13;76.34
66560;BME280;53413;49.878;8.142;2023-01-29T12:16:22;101109.03;;;3.94;76.62
66560;BME280;53413;49.878;8.142;2023-01-29T12:19:22;101097.53;;;3.58;76.96
66560;BME280;53413;49.878;8.142;2023-01-29T12:22:21;101092.31;;;3.53;77.75
66560;BME280;53413;49.878;8.142;2023-01-29T12:24:53;101088.16;;;3.78;78.00
66560;BME280;53413;49.878;8.142;2023-01-29T12:27:27;101079.78;;;4.23;77.69
66560;BME280;53413;49.878;8.142;2023-01-29T12:35:37;101067.06;;;4.86;76.33
66560;BME280;53413;49.878;8.142;2023-01-29T12:38:16;101065.25;;;4.56;76.09
66560;BME280;53413;49.878;8.142;2023-01-29T12:40:52;101072.09;;;4.47;77.05
66560;BME280;53413;49.878;8.142;2023-01-29T12:43:39;101057.38;;;4.46;76.60
66560;BME280;53413;49.878;8.142;2023-01-29T12:46:12;101054.75;;;4.32;77.28
66560;BME280;53413;49.878;8.142;2023-01-29T12:48:42;101059.94;;;4.26;76.39
66560;BME280;53413;49.878;8.142;2023-01-29T12:51:19;101054.78;;;4.36;77.66
66560;BME280;53413;49.878;8.142;2023-01-29T12:53:51;101060.00;;;4.45;77.31
66560;BME280;53413;49.878;8.142;2023-01-29T12:56:31;101047.91;;;4.58;76.77
66560;BME280;53413;49.878;8.142;2023-01-29T12:59:00;101046.22;;;4.68;76.71
66560;BME280;53413;49.878;8.142;2023-01-29T13:01:43;101037.56;;;4.66;76.22
66560;BME280;53413;49.878;8.142;2023-01-29T13:04:34;101028.94;;;4.82;76.36
66560;BME280;53413;49.878;8.142;2023-01-29T13:07:14;101025.44;;;4.60;76.82
66560;BME280;53413;49.878;8.142;2023-01-29T13:09:43;101026.19;;;4.34;76.36
66560;BME280;53413;49.878;8.142;2023-01-29T13:12:17;101030.50;;;4.27;77.82
66560;BME280;53413;49.878;8.142;2023-01-29T13:17:40;101020.66;;;3.61;79.16
66560;BME280;53413;49.878;8.142;2023-01-29T13:20:16;101012.81;;;3.55;81.21
66560;BME280;53413;49.878;8.142;2023-01-29T13:22:43;101014.53;;;3.50;80.56
66560;BME280;53413;49.878;8.142;2023-01-29T13:25:17;101015.25;;;3.33;80.82
66560;BME280;53413;49.878;8.142;2023-01-29T13:27:44;101003.16;;;3.31;80.79
66560;BME280;53413;49.878;8.142;2023-01-29T13:30:29;101004.06;;;3.37;80.74
66560;BME280;53413;49.878;8.142;2023-01-29T13:32:55;100998.91;;;3.41;81.01
66560;BME280;53413;49.878;8.142;2023-01-29T13:35:34;100996.38;;;3.50;81.48
66560;BME280;53413;49.878;8.142;2023-01-29T13:38:01;100987.84;;;3.65;81.00
66560;BME280;53413;49.878;8.142;2023-01-29T13:40:28;100987.78;;;3.56;80.76
66560;BME280;53413;49.878;8.142;2023-01-29T13:42:54;100992.78;;;3.32;80.56
66560;BME280;53413;49.878;8.142;2023-01-29T13:45:30;100991.78;;;3.12;81.76
66560;BME280;53413;49.878;8.142;2023-01-29T13:48:26;100988.16;;;2.91;82.55
66560;BME280;53413;49.878;8.142;2023-01-29T13:50:54;100989.78;;;2.83;83.34
66560;BME280;53413;49.878;8.142;2023-01-29T13:53:26;100982.88;;;2.79;83.54
66560;BME280;53413;49.878;8.142;2023-01-29T13:55:53;100975.03;;;2.72;84.68
66560;BME280;53413;49.878;8.142;2023-01-29T14:00:56;100979.22;;;2.58;85.27
66560;BME280;53413;49.878;8.142;2023-01-29T14:13:47;100960.72;;;2.21;86.25
66560;BME280;53413;49.878;8.142;2023-01-29T14:19:04;100952.75;;;2.04;86.83
66560;BME280;53413;49.878;8.142;2023-01-29T14:21:32;100950.09;;;1.99;88.61
66560;BME280;53413;49.878;8.142;2023-01-29T14:24:19;100950.88;;;1.90;88.13
66560;BME280;53413;49.878;8.142;2023-01-29T14:26:47;100960.97;;;1.73;88.99
66560;BME280;53413;49.878;8.142;2023-01-29T14:31:47;100968.56;;;1.62;90.80
66560;BME280;53413;49.878;8.142;2023-01-29T14:36:42;100961.50;;;1.49;92.98
66560;BME280;53413;49.878;8.142;2023-01-29T14:41:58;100959.47;;;1.28;92.82
66560;BME280;53413;49.878;8.142;2023-01-29T14:50:00;100957.44;;;1.10;93.48
66560;BME280;53413;49.878;8.142;2023-01-29T14:52:34;100963.38;;;1.02;94.44
66560;BME280;53413;49.878;8.142;2023-01-29T14:55:04;100957.25;;;0.96;95.06
66560;BME280;53413;49.878;8.142;2023-01-29T14:57:31;100946.00;;;0.92;96.23
66560;BME280;53413;49.878;8.142;2023-01-29T15:00:03;100942.47;;;0.85;98.18
66560;BME280;53413;49.878;8.142;2023-01-29T15:02:43;100932.91;;;0.81;98.45
66560;BME280;53413;49.878;8.142;2023-01-29T15:05:13;100927.63;;;0.73;99.01
66560;BME280;53413;49.878;8.142;2023-01-29T15:07:47;100931.84;;;0.68;99.27
66560;BME280;53413;49.878;8.142;2023-01-29T15:10:19;100927.47;;;0.64;100.00